createdAt,value
2016-11-25T00:00:09.077Z,10.97
2016-11-25T00:01:08.774Z,10.82
2016-11-25T00:02:08.791Z,10.93
2016-11-25T00:03:08.492Z,10.86
2016-11-25T00:04:08.510Z,10.6
2016-11-25T00:05:08.845Z,10.6
2016-11-25T00:06:09.178Z,10.48
2016-11-25T00:07:08.875Z,10.51
2016-11-25T00:08:08.581Z,10.49
2016-11-25T00:09:09.231Z,10.44
2016-11-25T00:10:08.932Z,10.46
2016-11-25T00:11:08.974Z,10.49
2016-11-25T00:12:08.654Z,10.48
2016-11-25T00:13:08.992Z,10.53
2016-11-25T00:14:09.010Z,10.56
2016-11-25T00:15:08.699Z,10.61
2016-11-25T00:16:09.041Z,10.41
2016-11-25T00:17:09.057Z,10.49
2016-11-25T00:18:09.073Z,10.4
2016-11-25T00:19:08.773Z,10.53
2016-11-25T00:20:09.113Z,10.59
2016-11-25T00:21:08.811Z,10.57
2016-11-25T00:22:09.463Z,10.64
2016-11-25T00:23:08.841Z,10.53
2016-11-25T00:24:09.504Z,10.63
2016-11-25T00:25:08.879Z,10.6
2016-11-25T00:26:09.214Z,10.56
2016-11-25T00:27:09.259Z,10.63
2016-11-25T00:28:08.947Z,10.71
2016-11-25T00:29:08.951Z,10.75
2016-11-25T00:30:09.613Z,10.57
2016-11-25T00:31:09.340Z,10.69
2016-11-25T00:32:09.324Z,10.64
2016-11-25T00:33:09.654Z,10.61
2016-11-25T00:34:09.833Z,10.56
2016-11-25T00:35:09.074Z,10.48
2016-11-25T00:36:09.398Z,10.53
2016-11-25T00:37:09.409Z,10.59
2016-11-25T00:38:09.742Z,10.46
2016-11-25T00:39:09.442Z,10.53
2016-11-25T00:40:09.481Z,10.34
2016-11-25T00:41:09.162Z,10.38
2016-11-25T00:42:09.181Z,10.41
2016-11-25T00:43:09.515Z,10.31
2016-11-25T00:44:09.234Z,10.28
2016-11-25T00:45:09.862Z,10.26
2016-11-25T00:46:09.562Z,10.31
2016-11-25T00:47:09.270Z,10.34
2016-11-25T00:48:09.922Z,10.49
2016-11-25T00:49:09.937Z,10.56
2016-11-25T00:50:09.957Z,10.49
2016-11-25T00:51:09.660Z,10.42
2016-11-25T00:52:09.671Z,10.48
2016-11-25T00:53:09.371Z,10.46
2016-11-25T00:54:09.707Z,10.54
2016-11-25T00:55:09.726Z,10.51
2016-11-25T00:56:09.425Z,10.49
2016-11-25T00:57:09.441Z,10.63
2016-11-25T00:58:09.459Z,10.53
2016-11-25T00:59:09.792Z,10.53
2016-11-25T01:00:09.496Z,10.48
2016-11-25T01:01:09.834Z,10.51
2016-11-25T01:02:09.528Z,10.46
2016-11-25T01:03:09.860Z,10.48
2016-11-25T01:04:09.881Z,10.54
2016-11-25T01:05:09.900Z,10.56
2016-11-25T01:06:09.603Z,10.6
2016-11-25T01:07:09.932Z,10.61
2016-11-25T01:08:09.957Z,10.61
2016-11-25T01:09:09.967Z,10.59
2016-11-25T01:10:10.304Z,10.37
2016-11-25T01:11:09.688Z,10.46
2016-11-25T01:12:09.704Z,10.57
2016-11-25T01:13:09.725Z,10.61
2016-11-25T01:14:10.058Z,10.63
2016-11-25T01:15:10.078Z,10.6
2016-11-25T01:16:10.091Z,10.67
2016-11-25T01:17:09.802Z,10.64
2016-11-25T01:18:10.127Z,10.59
2016-11-25T01:19:09.858Z,10.35
2016-11-25T01:20:09.848Z,10.4
2016-11-25T01:21:10.180Z,10.38
2016-11-25T01:22:10.200Z,10.44
2016-11-25T01:23:10.225Z,10.44
2016-11-25T01:24:10.547Z,10.49
2016-11-25T01:25:10.247Z,10.44
2016-11-25T01:26:09.951Z,10.34
2016-11-25T01:27:10.604Z,10.46
2016-11-25T01:28:10.301Z,10.49
2016-11-25T01:29:10.316Z,10.56
2016-11-25T01:30:10.652Z,10.37
2016-11-25T01:31:10.355Z,10.34
2016-11-25T01:32:10.415Z,10.44
2016-11-25T01:33:10.702Z,10.42
2016-11-25T01:34:10.724Z,10.41
2016-11-25T01:35:10.443Z,10.48
2016-11-25T01:36:10.456Z,10.59
2016-11-25T01:37:10.152Z,10.53
2016-11-25T01:38:10.169Z,10.53
2016-11-25T01:39:10.179Z,10.54
2016-11-25T01:40:10.511Z,10.46
2016-11-25T01:41:10.846Z,10.44
2016-11-25T01:42:10.571Z,10.4
2016-11-25T01:43:10.878Z,10.57
2016-11-25T01:44:10.899Z,10.49
2016-11-25T01:45:10.597Z,10.53
2016-11-25T01:46:10.619Z,10.49
2016-11-25T01:47:10.632Z,10.48
2016-11-25T01:48:10.652Z,10.54
2016-11-25T01:49:10.668Z,10.51
2016-11-25T01:50:10.375Z,10.44
2016-11-25T01:51:10.703Z,10.37
2016-11-25T01:52:10.719Z,10.46
2016-11-25T01:53:10.743Z,10.37
2016-11-25T01:54:11.076Z,10.31
2016-11-25T01:55:10.776Z,10.34
2016-11-25T01:56:10.793Z,10.34
2016-11-25T01:57:10.496Z,10.42
2016-11-25T01:58:10.827Z,10.46
2016-11-25T01:59:11.161Z,10.49
2016-11-25T02:00:10.863Z,10.51
2016-11-25T02:01:10.889Z,10.53
2016-11-25T02:02:10.899Z,10.48
2016-11-25T02:03:11.233Z,10.38
2016-11-25T02:04:10.939Z,10.3
2016-11-25T02:05:10.952Z,10.3
2016-11-25T02:06:10.972Z,10.2
2016-11-25T02:07:10.987Z,10.16
2016-11-25T02:08:11.007Z,10.22
2016-11-25T02:09:11.023Z,10.19
2016-11-25T02:10:10.725Z,10.4
2016-11-25T02:11:11.058Z,10.48
2016-11-25T02:12:11.392Z,10.67
2016-11-25T02:13:11.408Z,10.56
2016-11-25T02:14:11.110Z,10.67
2016-11-25T02:15:11.445Z,10.51
2016-11-25T02:16:11.144Z,10.37
2016-11-25T02:17:11.160Z,10.4
2016-11-25T02:18:10.864Z,10.48
2016-11-25T02:19:11.513Z,10.49
2016-11-25T02:20:11.215Z,10.34
2016-11-25T02:21:10.916Z,10.41
2016-11-25T02:22:11.565Z,10.37
2016-11-25T02:23:10.951Z,10.42
2016-11-25T02:24:11.602Z,10.35
2016-11-25T02:25:11.616Z,10.31
2016-11-25T02:26:11.324Z,10.33
2016-11-25T02:27:11.041Z,10.38
2016-11-25T02:28:11.357Z,10.38
2016-11-25T02:29:11.062Z,10.48
2016-11-25T02:30:11.730Z,10.42
2016-11-25T02:31:11.092Z,10.35
2016-11-25T02:32:11.127Z,10.28
2016-11-25T02:33:11.127Z,10.33
2016-11-25T02:34:11.479Z,10.3
2016-11-25T02:35:11.175Z,10.28
2016-11-25T02:36:11.810Z,10.28
2016-11-25T02:37:11.827Z,10.31
2016-11-25T02:38:11.855Z,10.33
2016-11-25T02:39:11.547Z,10.28
2016-11-25T02:40:11.249Z,10.1
2016-11-25T02:41:11.899Z,9.95
2016-11-25T02:42:11.919Z,9.94
2016-11-25T02:43:11.305Z,9.91
2016-11-25T02:44:11.635Z,9.98
2016-11-25T02:45:11.338Z,10.01
2016-11-25T02:46:11.355Z,9.91
2016-11-25T02:47:12.003Z,9.98
2016-11-25T02:48:12.026Z,9.92
2016-11-25T02:49:11.724Z,9.99
2016-11-25T02:50:11.743Z,10.05
2016-11-25T02:51:11.443Z,10.02
2016-11-25T02:52:11.467Z,10.12
2016-11-25T02:53:11.794Z,10.15
2016-11-25T02:54:11.814Z,10.17
2016-11-25T02:55:11.511Z,10.15
2016-11-25T02:56:11.851Z,10.15
2016-11-25T02:57:11.864Z,10.2
2016-11-25T02:58:11.883Z,10.28
2016-11-25T02:59:11.902Z,10.35
2016-11-25T03:00:12.235Z,10.25
2016-11-25T03:01:11.944Z,10.2
2016-11-25T03:02:11.640Z,10.23
2016-11-25T03:03:11.977Z,10.2
2016-11-25T03:04:11.669Z,10.19
2016-11-25T03:05:12.005Z,10.01
2016-11-25T03:06:11.711Z,10.05
2016-11-25T03:07:12.359Z,10.1
2016-11-25T03:08:11.743Z,10.16
2016-11-25T03:09:11.762Z,10.19
2016-11-25T03:10:12.090Z,10.19
2016-11-25T03:11:11.793Z,10.17
2016-11-25T03:12:11.818Z,10.13
2016-11-25T03:13:11.834Z,10.22
2016-11-25T03:14:11.869Z,10.19
2016-11-25T03:15:12.517Z,10.16
2016-11-25T03:16:12.211Z,10.23
2016-11-25T03:17:12.214Z,10.2
2016-11-25T03:18:12.552Z,10.22
2016-11-25T03:19:11.952Z,10.17
2016-11-25T03:20:12.273Z,10.17
2016-11-25T03:21:11.972Z,10.26
2016-11-25T03:22:11.988Z,10.25
2016-11-25T03:23:12.336Z,10.34
2016-11-25T03:24:12.337Z,10.41
2016-11-25T03:25:12.041Z,10.51
2016-11-25T03:26:12.389Z,10.35
2016-11-25T03:27:12.709Z,10.35
2016-11-25T03:28:12.722Z,10.33
2016-11-25T03:29:12.426Z,10.16
2016-11-25T03:30:12.760Z,10.15
2016-11-25T03:31:12.460Z,10.22
2016-11-25T03:32:12.165Z,10.26
2016-11-25T03:33:12.492Z,10.23
2016-11-25T03:34:12.516Z,10.16
2016-11-25T03:35:12.215Z,10.2
2016-11-25T03:36:12.276Z,10.28
2016-11-25T03:37:12.260Z,10.38
2016-11-25T03:38:12.267Z,10.37
2016-11-25T03:39:12.284Z,10.42
2016-11-25T03:40:12.620Z,10.35
2016-11-25T03:41:12.327Z,10.4
2016-11-25T03:42:12.342Z,10.38
2016-11-25T03:43:12.989Z,10.31
2016-11-25T03:44:12.690Z,10.25
2016-11-25T03:45:12.394Z,10.26
2016-11-25T03:46:12.410Z,10.35
2016-11-25T03:47:13.067Z,10.22
2016-11-25T03:48:12.449Z,10.28
2016-11-25T03:49:12.783Z,10.15
2016-11-25T03:50:12.794Z,10.16
2016-11-25T03:51:12.811Z,10.16
2016-11-25T03:52:13.147Z,10.26
2016-11-25T03:53:12.532Z,10.04
2016-11-25T03:54:13.178Z,10.1
2016-11-25T03:55:12.566Z,9.92
2016-11-25T03:56:12.593Z,9.91
2016-11-25T03:57:12.919Z,9.86
2016-11-25T03:58:12.937Z,9.94
2016-11-25T03:59:12.639Z,10.04
2016-11-25T04:00:12.655Z,10.09
2016-11-25T04:01:12.674Z,9.99
2016-11-25T04:02:12.688Z,9.94
2016-11-25T04:03:13.338Z,9.91
2016-11-25T04:04:12.722Z,10.01
2016-11-25T04:05:13.070Z,9.92
2016-11-25T04:06:12.758Z,9.87
2016-11-25T04:07:13.097Z,9.89
2016-11-25T04:08:13.123Z,9.95
2016-11-25T04:09:13.127Z,9.84
2016-11-25T04:10:13.463Z,9.83
2016-11-25T04:11:12.862Z,9.87
2016-11-25T04:12:12.873Z,9.83
2016-11-25T04:13:13.514Z,9.89
2016-11-25T04:14:13.536Z,9.91
2016-11-25T04:15:13.246Z,9.92
2016-11-25T04:16:13.245Z,10.01
2016-11-25T04:17:13.269Z,10.07
2016-11-25T04:18:13.616Z,9.99
2016-11-25T04:19:13.298Z,10.01
2016-11-25T04:20:13.007Z,10.05
2016-11-25T04:21:13.338Z,10.13
2016-11-25T04:22:13.667Z,10.19
2016-11-25T04:23:13.376Z,10.22
2016-11-25T04:24:13.384Z,10.13
2016-11-25T04:25:13.403Z,9.98
2016-11-25T04:26:13.422Z,10.02
2016-11-25T04:27:13.768Z,10.01
2016-11-25T04:28:28.027Z,10.12
2016-11-25T04:29:13.160Z,10.07
2016-11-25T04:30:13.175Z,9.99
2016-11-25T04:31:13.821Z,10.05
2016-11-25T04:32:13.528Z,10.04
2016-11-25T04:33:13.223Z,9.98
2016-11-25T04:34:13.249Z,10.17
2016-11-25T04:35:13.289Z,10.22
2016-11-25T04:36:13.276Z,10.28
2016-11-25T04:37:13.612Z,10.28
2016-11-25T04:38:13.630Z,10.25
2016-11-25T04:39:13.651Z,10.12
2016-11-25T04:40:13.346Z,10.19
2016-11-25T04:41:13.364Z,10.23
2016-11-25T04:42:13.384Z,10.23
2016-11-25T04:43:13.711Z,10.23
2016-11-25T04:44:13.729Z,10.26
2016-11-25T04:45:13.435Z,10.28
2016-11-25T04:46:13.765Z,10.31
2016-11-25T04:47:13.468Z,10.3
2016-11-25T04:48:14.122Z,10.22
2016-11-25T04:49:13.507Z,10.07
2016-11-25T04:50:13.831Z,10.16
2016-11-25T04:51:14.179Z,10.2
2016-11-25T04:52:13.555Z,10.28
2016-11-25T04:53:14.200Z,10.37
2016-11-25T04:54:14.219Z,10.44
2016-11-25T04:55:13.963Z,10.44
2016-11-25T04:56:13.653Z,10.31
2016-11-25T04:57:13.958Z,10.3
2016-11-25T04:58:13.658Z,10.28
2016-11-25T04:59:13.995Z,10.16
2016-11-25T05:00:14.009Z,10.22
2016-11-25T05:01:14.349Z,10.23
2016-11-25T05:02:14.359Z,10.15
2016-11-25T05:03:13.749Z,10.2
2016-11-25T05:04:14.392Z,10.26
2016-11-25T05:05:14.099Z,10.2
2016-11-25T05:06:14.428Z,10.35
2016-11-25T05:07:14.133Z,10.25
2016-11-25T05:08:13.835Z,10.34
2016-11-25T05:09:14.482Z,10.05
2016-11-25T05:10:13.864Z,9.89
2016-11-25T05:11:13.910Z,9.89
2016-11-25T05:12:14.526Z,9.94
2016-11-25T05:13:14.230Z,9.92
2016-11-25T05:14:14.253Z,9.92
2016-11-25T05:15:14.582Z,9.89
2016-11-25T05:16:14.603Z,9.87
2016-11-25T05:17:14.019Z,9.91
2016-11-25T05:18:14.003Z,9.94
2016-11-25T05:19:14.022Z,9.87
2016-11-25T05:20:14.041Z,9.84
2016-11-25T05:21:14.066Z,9.91
2016-11-25T05:22:14.403Z,9.87
2016-11-25T05:23:14.413Z,9.86
2016-11-25T05:24:14.430Z,9.8
2016-11-25T05:25:14.134Z,9.89
2016-11-25T05:26:14.149Z,9.84
2016-11-25T05:27:14.788Z,9.76
2016-11-25T05:28:14.494Z,9.73
2016-11-25T05:29:14.512Z,9.82
2016-11-25T05:30:14.528Z,9.8
2016-11-25T05:31:14.547Z,9.54
2016-11-25T05:32:14.560Z,9.68
2016-11-25T05:33:14.580Z,9.64
2016-11-25T05:34:14.592Z,9.84
2016-11-25T05:35:14.323Z,9.86
2016-11-25T05:36:14.628Z,9.92
2016-11-25T05:37:14.962Z,9.99
2016-11-25T05:38:14.975Z,9.82
2016-11-25T05:39:14.679Z,9.82
2016-11-25T05:40:14.716Z,9.89
2016-11-25T05:41:14.715Z,9.91
2016-11-25T05:42:14.733Z,9.87
2016-11-25T05:43:14.757Z,9.87
2016-11-25T05:44:14.786Z,9.82
2016-11-25T05:45:14.782Z,9.74
2016-11-25T05:46:14.799Z,9.68
2016-11-25T05:47:14.815Z,9.51
2016-11-25T05:48:14.850Z,9.54
2016-11-25T05:49:14.547Z,9.65
2016-11-25T05:50:14.552Z,9.62
2016-11-25T05:51:15.203Z,9.66
2016-11-25T05:52:14.902Z,9.83
2016-11-25T05:53:15.237Z,9.86
2016-11-25T05:54:14.937Z,9.89
2016-11-25T05:55:14.640Z,9.95
2016-11-25T05:56:14.971Z,9.86
2016-11-25T05:57:15.299Z,9.83
2016-11-25T05:58:15.316Z,9.77
2016-11-25T05:59:15.023Z,9.62
2016-11-25T06:00:15.037Z,9.55
2016-11-25T06:01:15.374Z,9.48
2016-11-25T06:02:15.073Z,9.62
2016-11-25T06:03:14.772Z,9.66
2016-11-25T06:04:15.105Z,9.65
2016-11-25T06:05:15.438Z,9.72
2016-11-25T06:06:15.455Z,9.74
2016-11-25T06:07:15.159Z,9.66
2016-11-25T06:08:15.173Z,9.79
2016-11-25T06:09:15.506Z,9.79
2016-11-25T06:10:15.215Z,9.82
2016-11-25T06:11:15.536Z,9.87
2016-11-25T06:12:15.240Z,9.8
2016-11-25T06:13:15.259Z,9.8
2016-11-25T06:14:15.585Z,9.79
2016-11-25T06:15:15.287Z,9.79
2016-11-25T06:16:15.306Z,9.84
2016-11-25T06:17:15.008Z,9.8
2016-11-25T06:18:15.340Z,9.76
2016-11-25T06:19:15.355Z,9.72
2016-11-25T06:20:15.059Z,9.62
2016-11-25T06:21:15.706Z,9.65
2016-11-25T06:22:15.405Z,9.59
2016-11-25T06:23:15.738Z,9.56
2016-11-25T06:24:15.121Z,9.55
2016-11-25T06:25:15.141Z,9.55
2016-11-25T06:26:15.472Z,9.44
2016-11-25T06:27:15.174Z,9.29
2016-11-25T06:28:15.817Z,9.44
2016-11-25T06:29:15.520Z,9.5
2016-11-25T06:30:15.539Z,9.47
2016-11-25T06:31:15.240Z,9.43
2016-11-25T06:32:15.256Z,9.56
2016-11-25T06:33:15.904Z,9.58
2016-11-25T06:34:15.289Z,9.66
2016-11-25T06:35:15.307Z,9.64
2016-11-25T06:36:15.954Z,9.66
2016-11-25T06:37:15.969Z,9.72
2016-11-25T06:38:15.673Z,9.73
2016-11-25T06:39:15.694Z,9.74
2016-11-25T06:40:15.707Z,9.82
2016-11-25T06:41:15.719Z,9.82
2016-11-25T06:42:15.424Z,9.87
2016-11-25T06:43:16.070Z,9.83
2016-11-25T06:44:15.773Z,9.83
2016-11-25T06:45:15.788Z,9.83
2016-11-25T06:46:16.131Z,9.87
2016-11-25T06:47:15.823Z,9.83
2016-11-25T06:48:15.524Z,9.58
2016-11-25T06:49:15.860Z,9.51
2016-11-25T06:50:15.874Z,9.54
2016-11-25T06:51:15.894Z,9.72
2016-11-25T06:52:15.913Z,9.73
2016-11-25T06:53:15.925Z,9.62
2016-11-25T06:54:15.625Z,9.74
2016-11-25T06:55:15.642Z,9.69
2016-11-25T06:56:15.977Z,9.72
2016-11-25T06:57:15.681Z,9.73
2016-11-25T06:58:16.324Z,9.87
2016-11-25T06:59:15.714Z,9.91
2016-11-25T07:00:15.731Z,10.01
2016-11-25T07:01:15.748Z,10.04
2016-11-25T07:02:15.761Z,10.01
2016-11-25T07:03:16.410Z,9.97
2016-11-25T07:04:16.113Z,9.89
2016-11-25T07:05:16.457Z,9.84
2016-11-25T07:06:16.143Z,9.89
2016-11-25T07:07:15.847Z,9.68
2016-11-25T07:08:16.508Z,9.61
2016-11-25T07:09:16.537Z,9.65
2016-11-25T07:10:16.210Z,9.55
2016-11-25T07:11:16.231Z,9.61
2016-11-25T07:12:15.932Z,9.82
2016-11-25T07:13:15.950Z,9.84
2016-11-25T07:14:16.594Z,9.92
2016-11-25T07:15:16.300Z,9.95
2016-11-25T07:16:16.003Z,9.95
2016-11-25T07:17:16.333Z,9.77
2016-11-25T07:18:16.038Z,9.79
2016-11-25T07:19:16.366Z,9.8
2016-11-25T07:20:16.697Z,9.95
2016-11-25T07:21:16.402Z,9.99
2016-11-25T07:22:16.106Z,10.05
2016-11-25T07:23:16.211Z,9.98
2016-11-25T07:24:16.458Z,9.98
2016-11-25T07:25:16.790Z,10.01
2016-11-25T07:26:16.174Z,10.01
2016-11-25T07:27:16.818Z,10.01
2016-11-25T07:28:16.837Z,9.97
2016-11-25T07:29:16.219Z,9.8
2016-11-25T07:30:16.872Z,9.84
2016-11-25T07:31:16.575Z,9.87
2016-11-25T07:32:16.303Z,9.86
2016-11-25T07:33:16.309Z,9.84
2016-11-25T07:34:16.625Z,9.97
2016-11-25T07:35:16.640Z,9.91
2016-11-25T07:36:16.657Z,9.87
2016-11-25T07:37:16.359Z,9.79
2016-11-25T07:38:16.408Z,9.61
2016-11-25T07:39:16.707Z,9.72
2016-11-25T07:40:16.433Z,9.86
2016-11-25T07:41:16.863Z,9.79
2016-11-25T07:42:16.759Z,9.86
2016-11-25T07:43:16.778Z,10.01
2016-11-25T07:44:16.796Z,10.01
2016-11-25T07:45:17.136Z,10.15
2016-11-25T07:46:16.828Z,10.07
2016-11-25T07:47:17.161Z,10.12
2016-11-25T07:48:17.175Z,10.13
2016-11-25T07:49:16.883Z,10.26
2016-11-25T07:50:16.927Z,10.04
2016-11-25T07:51:17.226Z,10.07
2016-11-25T07:52:16.615Z,10.22
2016-11-25T07:53:16.638Z,10.02
2016-11-25T07:54:16.965Z,9.97
2016-11-25T07:55:16.757Z,9.97
2016-11-25T07:56:17.326Z,9.86
2016-11-25T07:57:17.046Z,9.86
2016-11-25T07:58:16.718Z,10.04
2016-11-25T07:59:17.050Z,10.04
2016-11-25T08:00:17.077Z,10.01
2016-11-25T08:01:16.769Z,9.98
2016-11-25T08:02:17.419Z,10.04
2016-11-25T08:03:17.124Z,9.98
2016-11-25T08:04:17.451Z,9.87
2016-11-25T08:05:16.838Z,9.91
2016-11-25T08:06:17.172Z,9.65
2016-11-25T08:07:16.873Z,9.82
2016-11-25T08:08:17.515Z,9.82
2016-11-25T08:09:16.928Z,9.8
2016-11-25T08:10:17.235Z,9.86
2016-11-25T08:11:17.255Z,9.69
2016-11-25T08:12:17.275Z,9.73
2016-11-25T08:13:16.978Z,9.86
2016-11-25T08:14:17.308Z,9.91
2016-11-25T08:15:17.636Z,9.91
2016-11-25T08:16:17.342Z,9.89
2016-11-25T08:17:17.060Z,9.82
2016-11-25T08:18:17.374Z,9.76
2016-11-25T08:19:17.728Z,9.73
2016-11-25T08:20:17.410Z,9.8
2016-11-25T08:21:17.112Z,9.65
2016-11-25T08:22:17.444Z,9.54
2016-11-25T08:23:17.141Z,9.41
2016-11-25T08:24:17.170Z,9.54
2016-11-25T08:25:17.494Z,9.51
2016-11-25T08:26:17.832Z,9.56
2016-11-25T08:27:17.841Z,9.55
2016-11-25T08:28:17.545Z,9.58
2016-11-25T08:29:17.244Z,9.51
2016-11-25T08:30:17.892Z,9.65
2016-11-25T08:31:17.283Z,9.72
2016-11-25T08:32:17.297Z,9.74
2016-11-25T08:33:17.318Z,9.8
2016-11-25T08:34:17.342Z,9.86
2016-11-25T08:35:17.350Z,9.94
2016-11-25T08:36:17.365Z,9.82
2016-11-25T08:37:18.019Z,9.84
2016-11-25T08:38:17.718Z,9.82
2016-11-25T08:39:17.734Z,9.94
2016-11-25T08:40:17.749Z,9.98
2016-11-25T08:41:17.451Z,9.98
2016-11-25T08:42:17.806Z,9.84
2016-11-25T08:43:17.486Z,9.82
2016-11-25T08:44:18.138Z,9.69
2016-11-25T08:45:17.521Z,9.64
2016-11-25T08:46:17.868Z,9.62
2016-11-25T08:47:18.183Z,9.72
2016-11-25T08:48:17.571Z,9.72
2016-11-25T08:49:17.587Z,9.65
2016-11-25T08:50:17.924Z,9.56
2016-11-25T08:51:17.618Z,9.69
2016-11-25T08:52:17.638Z,9.72
2016-11-25T08:53:18.289Z,9.77
2016-11-25T08:54:18.307Z,9.82
2016-11-25T08:55:18.004Z,9.82
2016-11-25T08:56:38.549Z,9.89
2016-11-25T08:57:17.726Z,9.89
2016-11-25T08:58:17.738Z,9.91
2016-11-25T08:59:18.081Z,10.02
2016-11-25T09:00:17.776Z,9.95
2016-11-25T09:01:18.427Z,9.98
2016-11-25T09:02:18.437Z,10.05
2016-11-25T09:03:18.143Z,9.94
2016-11-25T09:04:17.842Z,9.98
2016-11-25T09:05:17.858Z,10.02
2016-11-25T09:06:17.877Z,10.1
2016-11-25T09:07:18.210Z,10.04
2016-11-25T09:08:17.920Z,10.05
2016-11-25T09:09:17.929Z,9.99
2016-11-25T09:10:18.263Z,9.92
2016-11-25T09:11:17.965Z,9.91
2016-11-25T09:12:17.979Z,9.83
2016-11-25T09:13:18.628Z,9.84
2016-11-25T09:14:18.021Z,9.83
2016-11-25T09:15:18.663Z,9.87
2016-11-25T09:16:18.360Z,9.98
2016-11-25T09:17:18.066Z,10.09
2016-11-25T09:18:18.402Z,10.16
2016-11-25T09:19:18.433Z,10.02
2016-11-25T09:20:18.113Z,9.91
2016-11-25T09:21:18.452Z,9.95
2016-11-25T09:22:18.487Z,9.87
2016-11-25T09:23:18.497Z,9.99
2016-11-25T09:24:18.192Z,9.91
2016-11-25T09:25:18.830Z,9.84
2016-11-25T09:26:18.848Z,9.82
2016-11-25T09:27:18.237Z,9.84
2016-11-25T09:28:18.255Z,9.83
2016-11-25T09:29:18.588Z,9.91
2016-11-25T09:30:18.922Z,9.97
2016-11-25T09:31:18.317Z,10.01
2016-11-25T09:32:18.952Z,10.15
2016-11-25T09:33:18.658Z,10.23
2016-11-25T09:34:18.670Z,10.26
2016-11-25T09:35:19.006Z,10.22
2016-11-25T09:36:18.714Z,10.25
2016-11-25T09:37:19.041Z,10.28
2016-11-25T09:38:18.740Z,10.31
2016-11-25T09:39:18.442Z,10.2
2016-11-25T09:40:19.098Z,10.17
2016-11-25T09:41:18.479Z,10.19
2016-11-25T09:42:18.495Z,10.15
2016-11-25T09:43:18.829Z,10.19
2016-11-25T09:44:18.528Z,10.35
2016-11-25T09:45:18.555Z,10.3
2016-11-25T09:46:18.878Z,10.22
2016-11-25T09:47:18.923Z,10.17
2016-11-25T09:48:19.226Z,10.26
2016-11-25T09:49:18.930Z,10.19
2016-11-25T09:50:18.655Z,10.09
2016-11-25T09:51:18.659Z,10.23
2016-11-25T09:52:18.667Z,10.25
2016-11-25T09:53:19.319Z,10.22
2016-11-25T09:54:19.014Z,10.26
2016-11-25T09:55:18.717Z,10.23
2016-11-25T09:56:19.061Z,10.2
2016-11-25T09:57:19.066Z,10.17
2016-11-25T09:58:19.400Z,10.23
2016-11-25T09:59:18.797Z,10.25
2016-11-25T10:00:19.434Z,10.22
2016-11-25T10:01:19.453Z,10.1
2016-11-25T10:02:18.839Z,10.04
2016-11-25T10:03:19.488Z,10.13
2016-11-25T10:04:18.877Z,9.95
2016-11-25T10:05:19.524Z,9.76
2016-11-25T10:06:19.552Z,9.77
2016-11-25T10:07:18.936Z,9.79
2016-11-25T10:08:18.947Z,9.82
2016-11-25T10:09:19.303Z,9.87
2016-11-25T10:10:19.293Z,9.86
2016-11-25T10:11:19.624Z,9.97
2016-11-25T10:12:19.329Z,9.99
2016-11-25T10:13:19.662Z,10.05
2016-11-25T10:14:19.361Z,10.02
2016-11-25T10:15:19.382Z,10.02
2016-11-25T10:16:19.103Z,10.02
2016-11-25T10:17:19.413Z,10.05
2016-11-25T10:18:19.119Z,10.01
2016-11-25T10:19:19.768Z,10.2
2016-11-25T10:20:19.468Z,10.23
2016-11-25T10:21:19.478Z,10.31
2016-11-25T10:22:19.184Z,10.3
2016-11-25T10:23:19.513Z,10.4
2016-11-25T10:24:19.542Z,10.41
2016-11-25T10:25:19.863Z,10.35
2016-11-25T10:26:19.273Z,10.38
2016-11-25T10:27:19.901Z,10.42
2016-11-25T10:28:19.291Z,10.44
2016-11-25T10:29:19.936Z,10.46
2016-11-25T10:30:19.638Z,10.46
2016-11-25T10:31:19.970Z,10.46
2016-11-25T10:32:19.679Z,10.51
2016-11-25T10:33:20.264Z,10.59
2016-11-25T10:34:19.707Z,10.59
2016-11-25T10:35:19.409Z,10.61
2016-11-25T10:36:19.752Z,10.71
2016-11-25T10:37:19.759Z,10.64
2016-11-25T10:38:19.777Z,10.61
2016-11-25T10:39:19.808Z,10.61
2016-11-25T10:40:19.519Z,10.63
2016-11-25T10:41:19.511Z,10.64
2016-11-25T10:42:19.843Z,10.61
2016-11-25T10:43:20.187Z,10.61
2016-11-25T10:44:20.195Z,10.61
2016-11-25T10:45:19.898Z,10.67
2016-11-25T10:46:19.916Z,10.57
2016-11-25T10:47:19.942Z,10.67
2016-11-25T10:48:19.974Z,10.72
2016-11-25T10:49:20.304Z,10.82
2016-11-25T10:50:19.985Z,10.75
2016-11-25T10:51:20.004Z,10.82
2016-11-25T10:52:20.337Z,10.87
2016-11-25T10:53:20.037Z,10.89
2016-11-25T10:54:19.737Z,10.69
2016-11-25T10:55:20.098Z,10.67
2016-11-25T10:56:19.775Z,10.76
2016-11-25T10:57:20.425Z,10.56
2016-11-25T10:58:20.129Z,10.59
2016-11-25T10:59:20.146Z,10.54
2016-11-25T11:00:19.857Z,10.61
2016-11-25T11:01:19.862Z,10.64
2016-11-25T11:02:20.203Z,10.69
2016-11-25T11:03:20.220Z,10.74
2016-11-25T11:04:20.230Z,10.81
2016-11-25T11:05:20.252Z,10.9
2016-11-25T11:06:20.581Z,10.71
2016-11-25T11:07:19.977Z,10.68
2016-11-25T11:08:20.300Z,10.63
2016-11-25T11:09:20.008Z,10.6
2016-11-25T11:10:20.339Z,10.61
2016-11-25T11:11:20.354Z,10.67
2016-11-25T11:12:20.370Z,10.64
2016-11-25T11:13:20.736Z,10.64
2016-11-25T11:14:20.405Z,10.6
2016-11-25T11:15:20.425Z,10.61
2016-11-25T11:16:20.447Z,10.72
2016-11-25T11:17:20.465Z,10.84
2016-11-25T11:18:20.792Z,10.81
2016-11-25T11:19:20.494Z,10.79
2016-11-25T11:20:20.197Z,10.86
2016-11-25T11:21:20.534Z,10.82
2016-11-25T11:22:20.547Z,10.78
2016-11-25T11:23:20.256Z,10.9
2016-11-25T11:24:20.271Z,11.02
2016-11-25T11:25:20.325Z,11.07
2016-11-25T11:26:20.303Z,11.1
2016-11-25T11:27:20.638Z,11.08
2016-11-25T11:28:20.659Z,11.07
2016-11-25T11:29:35.248Z,11.17
2016-11-25T11:30:20.689Z,11.17
2016-11-25T11:31:20.709Z,11.07
2016-11-25T11:32:21.036Z,11.1
2016-11-25T11:33:20.745Z,11.04
2016-11-25T11:34:20.759Z,11.07
2016-11-25T11:35:21.098Z,11.14
2016-11-25T11:36:20.803Z,11.26
2016-11-25T11:37:20.816Z,11.26
2016-11-25T11:38:20.519Z,11.3
2016-11-25T11:39:20.852Z,11.33
2016-11-25T11:40:20.656Z,11.36
2016-11-25T11:41:20.571Z,11.36
2016-11-25T11:42:20.908Z,11.36
2016-11-25T11:43:20.941Z,11.3
2016-11-25T11:44:20.941Z,11.23
2016-11-25T11:45:20.958Z,11.19
2016-11-25T11:46:20.974Z,11.29
2016-11-25T11:47:21.009Z,11.25
2016-11-25T11:48:21.015Z,11.3
2016-11-25T11:49:20.731Z,11.29
2016-11-25T11:50:21.065Z,11.29
2016-11-25T11:51:20.760Z,11.35
2016-11-25T11:52:20.770Z,11.25
2016-11-25T11:53:21.424Z,11.22
2016-11-25T11:54:21.436Z,11.12
2016-11-25T11:55:21.137Z,11.19
2016-11-25T11:56:20.842Z,11.26
2016-11-25T11:57:20.859Z,11.33
2016-11-25T11:58:21.507Z,11.35
2016-11-25T11:59:21.235Z,11.44
2016-11-25T12:00:20.927Z,11.4
2016-11-25T12:01:21.246Z,11.45
2016-11-25T12:02:20.997Z,11.33
2016-11-25T12:03:21.285Z,11.33
2016-11-25T12:04:21.618Z,11.44
2016-11-25T12:05:21.319Z,11.5
2016-11-25T12:06:21.654Z,11.59
2016-11-25T12:07:21.052Z,11.52
2016-11-25T12:08:21.378Z,11.57
2016-11-25T12:09:21.075Z,11.68
2016-11-25T12:10:21.102Z,11.55
2016-11-25T12:11:21.429Z,11.43
2016-11-25T12:12:21.761Z,11.48
2016-11-25T12:13:21.463Z,11.6
2016-11-25T12:14:21.490Z,11.59
2016-11-25T12:15:21.512Z,11.55
2016-11-25T12:16:21.834Z,11.54
2016-11-25T12:17:21.575Z,11.52
2016-11-25T12:18:21.238Z,11.59
2016-11-25T12:19:21.573Z,11.57
2016-11-25T12:20:21.906Z,11.45
2016-11-25T12:21:21.611Z,11.45
2016-11-25T12:22:21.629Z,11.47
2016-11-25T12:23:21.648Z,11.55
2016-11-25T12:24:21.348Z,11.59
2016-11-25T12:25:21.367Z,11.36
2016-11-25T12:26:21.708Z,11.5
2016-11-25T12:27:21.717Z,11.37
2016-11-25T12:28:21.736Z,11.47
2016-11-25T12:29:21.753Z,11.52
2016-11-25T12:30:21.771Z,11.59
2016-11-25T12:31:21.796Z,11.4
2016-11-25T12:32:21.808Z,11.41
2016-11-25T12:33:22.145Z,11.54
2016-11-25T12:34:22.163Z,11.54
2016-11-25T12:35:21.867Z,11.48
2016-11-25T12:36:21.567Z,11.57
2016-11-25T12:37:22.215Z,11.43
2016-11-25T12:38:21.918Z,11.45
2016-11-25T12:39:21.943Z,11.41
2016-11-25T12:40:21.636Z,11.4
2016-11-25T12:41:21.988Z,11.51
2016-11-25T12:42:21.686Z,11.48
2016-11-25T12:43:22.327Z,11.59
2016-11-25T12:44:21.722Z,11.6
2016-11-25T12:45:22.070Z,11.48
2016-11-25T12:46:22.066Z,11.6
2016-11-25T12:47:22.084Z,11.65
2016-11-25T12:48:21.786Z,11.48
2016-11-25T12:49:22.460Z,11.47
2016-11-25T12:50:22.135Z,11.51
2016-11-25T12:51:22.154Z,11.59
2016-11-25T12:52:22.175Z,11.55
2016-11-25T12:53:22.201Z,11.54
2016-11-25T12:54:22.217Z,11.55
2016-11-25T12:55:21.916Z,11.55
2016-11-25T12:56:22.249Z,11.44
2016-11-25T12:57:22.269Z,11.52
2016-11-25T12:58:22.279Z,11.52
2016-11-25T12:59:22.311Z,11.55
2016-11-25T13:00:22.319Z,11.48
2016-11-25T13:01:22.019Z,11.48
2016-11-25T13:02:22.669Z,11.57
2016-11-25T13:03:22.374Z,11.54